createdAt,value
2022-09-02T00:01:58.783Z,49.30
2022-09-02T00:05:03.893Z,49.30
2022-09-02T00:08:10.253Z,49.40
2022-09-02T00:11:22.470Z,49.50
2022-09-02T00:14:36.456Z,49.50
2022-09-02T00:17:42.043Z,49.70
2022-09-02T00:20:49.737Z,49.60
2022-09-02T00:23:55.068Z,49.70
2022-09-02T00:27:00.022Z,49.70
2022-09-02T00:30:09.124Z,49.80
2022-09-02T00:33:15.406Z,49.90
2022-09-02T00:36:22.376Z,49.90
2022-09-02T00:39:27.569Z,50.00
2022-09-02T00:42:32.742Z,50.10
2022-09-02T00:45:40.801Z,50.10
2022-09-02T00:48:50.998Z,50.20
2022-09-02T00:52:01.854Z,50.30
2022-09-02T00:55:11.201Z,50.30
2022-09-02T00:58:20.885Z,50.40
2022-09-02T01:01:28.610Z,50.50
2022-09-02T01:04:46.735Z,50.60
2022-09-02T01:07:53.119Z,50.60
2022-09-02T01:11:00.059Z,50.60
2022-09-02T01:14:06.047Z,50.70
2022-09-02T01:17:13.694Z,50.80
2022-09-02T01:20:21.289Z,50.90
2022-09-02T01:23:34.950Z,50.90
2022-09-02T01:26:40.343Z,51.00
2022-09-02T01:29:45.297Z,51.00
2022-09-02T01:32:50.559Z,51.10
2022-09-02T01:35:56.200Z,51.20
2022-09-02T01:39:03.901Z,51.30
2022-09-02T01:42:09.807Z,51.30
2022-09-02T01:45:15.867Z,51.40
2022-09-02T01:48:22.095Z,51.50
2022-09-02T01:51:29.058Z,51.50
2022-09-02T01:54:36.897Z,51.60
2022-09-02T01:57:41.916Z,51.70
2022-09-02T02:00:49.232Z,51.70
2022-09-02T02:03:54.477Z,51.80
2022-09-02T02:07:02.454Z,51.90
2022-09-02T02:10:11.361Z,51.90
2022-09-02T02:13:16.625Z,52.00
2022-09-02T02:16:22.193Z,52.00
2022-09-02T02:19:27.291Z,52.10
2022-09-02T02:22:32.406Z,52.10
2022-09-02T02:25:40.210Z,52.20
2022-09-02T02:28:45.877Z,52.30
2022-09-02T02:31:52.019Z,52.30
2022-09-02T02:34:57.129Z,52.30
2022-09-02T02:38:03.793Z,52.40
2022-09-02T02:41:11.865Z,52.40
2022-09-02T02:44:17.360Z,52.60
2022-09-02T02:47:22.471Z,52.50
2022-09-02T02:50:28.494Z,52.60
2022-09-02T02:53:36.314Z,52.60
2022-09-02T02:56:44.234Z,52.60
2022-09-02T02:59:49.195Z,52.70
2022-09-02T03:02:58.780Z,52.70
2022-09-02T03:06:03.962Z,52.80
2022-09-02T03:09:09.638Z,52.90
2022-09-02T03:12:19.456Z,52.90
2022-09-02T03:15:24.907Z,53.00
2022-09-02T03:18:31.410Z,53.00
2022-09-02T03:21:38.877Z,53.00
2022-09-02T03:24:45.367Z,53.10
2022-09-02T03:27:53.571Z,53.10
2022-09-02T03:30:58.572Z,53.20
2022-09-02T03:34:04.758Z,53.20
2022-09-02T03:37:11.337Z,53.30
2022-09-02T03:40:20.375Z,53.30
2022-09-02T03:43:28.190Z,53.30
2022-09-02T03:46:35.316Z,53.40
2022-09-02T03:49:40.901Z,53.40
2022-09-02T03:52:49.951Z,53.50
2022-09-02T03:55:55.122Z,53.60
2022-09-02T03:59:05.720Z,53.50
2022-09-02T04:02:11.217Z,53.60
2022-09-02T04:05:16.430Z,53.60
2022-09-02T04:08:22.989Z,53.70
2022-09-02T04:11:29.377Z,53.80
2022-09-02T04:14:36.998Z,53.80
2022-09-02T04:17:44.577Z,53.90
2022-09-02T04:20:51.859Z,53.90
2022-09-02T04:23:58.989Z,54.00
2022-09-02T04:27:04.958Z,54.00
2022-09-02T04:30:17.217Z,54.10
2022-09-02T04:33:23.532Z,54.20
2022-09-02T04:36:30.841Z,54.20
2022-09-02T04:39:38.473Z,54.20
2022-09-02T04:42:43.698Z,54.30
2022-09-02T04:45:51.990Z,54.30
2022-09-02T04:48:58.284Z,54.40
2022-09-02T04:52:03.323Z,54.40
2022-09-02T04:55:09.371Z,54.40
2022-09-02T04:58:16.663Z,54.50
2022-09-02T05:01:26.751Z,54.50
2022-09-02T05:04:34.150Z,54.70
2022-09-02T05:07:39.952Z,54.60
2022-09-02T05:10:48.350Z,54.60
2022-09-02T05:13:54.301Z,54.70
2022-09-02T05:17:07.499Z,54.80
2022-09-02T05:20:15.713Z,54.80
2022-09-02T05:23:22.471Z,54.80
2022-09-02T05:26:28.014Z,54.80
2022-09-02T05:29:33.031Z,54.90
2022-09-02T05:32:41.362Z,54.90
2022-09-02T05:35:48.017Z,55.00
2022-09-02T05:38:55.262Z,55.00
2022-09-02T05:42:01.885Z,55.10
2022-09-02T05:45:07.795Z,55.10
2022-09-02T05:48:28.637Z,55.20
2022-09-02T05:51:36.070Z,55.20
2022-09-02T05:54:42.601Z,55.20
2022-09-02T05:57:51.149Z,55.30
2022-09-02T06:00:56.351Z,55.30
2022-09-02T06:04:05.034Z,55.40
2022-09-02T06:07:11.754Z,55.50
2022-09-02T06:10:19.053Z,55.40
2022-09-02T06:13:24.135Z,55.50
2022-09-02T06:16:31.985Z,55.50
2022-09-02T06:19:40.226Z,55.60
2022-09-02T06:22:46.127Z,55.70
2022-09-02T06:25:52.331Z,55.70
2022-09-02T06:28:58.199Z,55.70
2022-09-02T06:32:03.258Z,55.70
2022-09-02T06:35:11.661Z,55.80
2022-09-02T06:38:20.527Z,55.80
2022-09-02T06:41:29.499Z,55.90
2022-09-02T06:44:37.995Z,55.70
2022-09-02T06:47:43.382Z,55.70
2022-09-02T06:50:51.569Z,55.60
2022-09-02T06:53:57.090Z,55.70
2022-09-02T06:57:04.486Z,55.70
2022-09-02T07:00:12.450Z,55.70
2022-09-02T07:03:31.001Z,55.60
2022-09-02T07:06:44.108Z,55.60
2022-09-02T07:09:49.214Z,55.60
2022-09-02T07:12:55.897Z,55.50
2022-09-02T07:16:01.814Z,55.50
2022-09-02T07:19:12.454Z,56.00
2022-09-02T07:22:22.141Z,55.40
2022-09-02T07:25:27.182Z,55.30
2022-09-02T07:28:33.999Z,55.30
2022-09-02T07:31:40.682Z,55.20
2022-09-02T07:34:46.973Z,55.20
2022-09-02T07:37:54.550Z,55.10
2022-09-02T07:41:00.778Z,55.20
2022-09-02T07:44:10.205Z,55.10
2022-09-02T07:47:15.301Z,55.00
2022-09-02T07:50:25.205Z,54.90
2022-09-02T07:53:37.993Z,54.90
2022-09-02T07:56:43.441Z,54.80
2022-09-02T07:59:48.965Z,54.70
2022-09-02T08:02:53.998Z,54.80
2022-09-02T08:06:10.481Z,54.70
2022-09-02T08:09:18.015Z,54.60
2022-09-02T08:12:23.210Z,54.50
2022-09-02T08:15:29.083Z,54.40
2022-09-02T08:18:34.473Z,54.40
2022-09-02T08:21:39.505Z,54.40
2022-09-02T08:24:47.081Z,54.40
2022-09-02T08:27:52.136Z,54.90
2022-09-02T08:30:59.566Z,54.20
2022-09-02T08:34:04.775Z,54.00
2022-09-02T08:37:09.732Z,53.90
2022-09-02T08:40:22.222Z,53.70
2022-09-02T08:43:37.429Z,53.50
2022-09-02T08:46:43.045Z,53.30
2022-09-02T08:49:52.929Z,53.20
2022-09-02T08:53:06.987Z,52.90
2022-09-02T08:56:15.463Z,52.70
2022-09-02T08:59:21.514Z,52.50
2022-09-02T09:02:32.897Z,52.40
2022-09-02T09:05:47.835Z,52.10
2022-09-02T09:09:02.946Z,51.80
2022-09-02T09:12:16.994Z,51.60
2022-09-02T09:15:24.385Z,51.40
2022-09-02T09:18:38.491Z,51.50
2022-09-02T09:21:43.998Z,51.90
2022-09-02T09:24:51.504Z,51.30
2022-09-02T09:27:59.429Z,51.10
2022-09-02T09:31:04.478Z,50.80
2022-09-02T09:34:11.098Z,50.60
2022-09-02T09:37:35.705Z,50.30
2022-09-02T09:40:41.174Z,50.00
2022-09-02T09:43:49.713Z,49.90
2022-09-02T09:47:04.676Z,49.60
2022-09-02T09:50:16.169Z,49.30
2022-09-02T09:53:22.395Z,49.20
2022-09-02T09:56:37.810Z,49.10
2022-09-02T09:59:49.961Z,48.80
2022-09-02T10:02:58.078Z,48.60
2022-09-02T10:06:22.688Z,48.40
2022-09-02T10:09:36.622Z,47.80
2022-09-02T10:12:41.417Z,47.80
2022-09-02T10:16:15.862Z,48.20
2022-09-02T10:19:22.863Z,47.80
2022-09-02T10:23:04.774Z,48.10
2022-09-02T10:26:18.858Z,47.50
2022-09-02T10:29:55.582Z,47.50
2022-09-02T10:33:22.218Z,47.10
2022-09-02T10:36:36.415Z,46.90
2022-09-02T10:40:00.471Z,46.70
2022-09-02T10:43:10.564Z,46.40
2022-09-02T10:46:21.074Z,46.40
2022-09-02T10:49:43.478Z,46.20
2022-09-02T10:53:10.565Z,45.80
2022-09-02T10:56:22.064Z,45.70
2022-09-02T10:59:31.862Z,45.70
2022-09-02T11:02:43.570Z,45.50
2022-09-02T11:05:55.208Z,45.20
2022-09-02T11:09:04.210Z,45.20
2022-09-02T11:12:15.952Z,45.10
2022-09-02T11:15:26.827Z,44.90
2022-09-02T11:18:45.201Z,44.80
2022-09-02T11:22:03.305Z,44.60
2022-09-02T11:25:13.439Z,44.30
2022-09-02T11:28:31.826Z,44.30
2022-09-02T11:31:41.234Z,44.00
2022-09-02T11:34:50.621Z,44.10
2022-09-02T11:38:03.577Z,43.80
2022-09-02T11:41:43.311Z,43.60
2022-09-02T11:45:13.063Z,43.30
2022-09-02T11:48:50.839Z,43.20
2022-09-02T11:52:10.975Z,43.00
2022-09-02T11:55:25.803Z,43.00
2022-09-02T11:58:39.652Z,42.80
2022-09-02T12:01:52.605Z,42.60
2022-09-02T12:05:39.974Z,42.50
2022-09-02T12:09:06.384Z,42.20
2022-09-02T12:13:01.998Z,42.30
2022-09-02T12:16:39.435Z,42.10
2022-09-02T12:19:48.576Z,42.00
2022-09-02T12:22:53.889Z,42.20
2022-09-02T12:26:03.492Z,42.20
2022-09-02T12:29:34.496Z,42.30
2022-09-02T12:33:13.560Z,42.10
2022-09-02T12:36:48.862Z,42.20
2022-09-02T12:39:59.783Z,42.20
2022-09-02T12:43:09.419Z,42.30
2022-09-02T12:46:26.064Z,42.20
2022-09-02T12:49:40.357Z,42.00
2022-09-02T12:52:48.676Z,41.90
2022-09-02T12:55:58.985Z,42.00
2022-09-02T12:59:03.973Z,41.80
2022-09-02T13:02:30.204Z,41.90
2022-09-02T13:05:56.837Z,41.50
2022-09-02T13:09:22.472Z,41.50
2022-09-02T13:12:56.994Z,41.50
2022-09-02T13:16:15.540Z,41.50
2022-09-02T13:20:05.749Z,41.50
2022-09-02T13:23:51.597Z,41.50
2022-09-02T13:27:21.994Z,41.60
2022-09-02T13:30:52.298Z,41.50
2022-09-02T13:34:03.596Z,41.50
2022-09-02T13:37:30.513Z,41.40
2022-09-02T13:40:43.805Z,41.30
2022-09-02T13:43:48.987Z,41.50
2022-09-02T13:46:55.881Z,41.60
2022-09-02T13:50:02.070Z,41.50
2022-09-02T13:56:38.025Z,41.50
2022-09-02T13:59:49.469Z,41.50
2022-09-02T14:03:02.728Z,41.40
2022-09-02T14:06:08.210Z,41.30
2022-09-02T14:09:21.610Z,41.40
2022-09-02T14:12:30.796Z,41.40
2022-09-02T14:15:37.180Z,41.30
2022-09-02T14:18:42.152Z,41.40
2022-09-02T14:21:53.318Z,41.30
2022-09-02T14:24:58.770Z,41.20
2022-09-02T14:28:13.588Z,41.30
2022-09-02T14:31:30.665Z,41.20
2022-09-02T14:34:37.587Z,41.20
2022-09-02T14:37:54.758Z,41.20
2022-09-02T14:41:04.742Z,41.00
2022-09-02T14:44:17.722Z,41.20
2022-09-02T14:47:24.537Z,41.10
2022-09-02T14:50:32.769Z,41.20
2022-09-02T14:53:39.842Z,41.10
2022-09-02T14:56:50.670Z,41.00
2022-09-02T14:59:59.847Z,41.10
2022-09-02T15:03:04.934Z,40.90
2022-09-02T15:06:14.954Z,41.00
2022-09-02T15:09:20.630Z,41.00
2022-09-02T15:12:29.722Z,41.00
2022-09-02T15:15:37.329Z,41.00
2022-09-02T15:18:42.325Z,40.80
2022-09-02T15:21:47.250Z,41.00
2022-09-02T15:24:52.215Z,41.00
2022-09-02T15:27:57.484Z,41.00
2022-09-02T15:31:05.319Z,41.00
2022-09-02T15:34:10.266Z,40.90
2022-09-02T15:37:15.228Z,40.90
2022-09-02T15:40:20.327Z,40.90
2022-09-02T15:43:25.451Z,41.00
2022-09-02T15:46:34.635Z,41.10
2022-09-02T15:49:39.686Z,41.00
2022-09-02T15:52:46.381Z,41.00
2022-09-02T15:55:51.306Z,40.90
2022-09-02T15:59:02.563Z,40.90
2022-09-02T16:02:10.183Z,40.90
2022-09-02T16:05:15.603Z,40.80
2022-09-02T16:08:20.532Z,40.90
2022-09-02T16:11:25.931Z,40.80
2022-09-02T16:14:30.937Z,40.90
2022-09-02T16:17:38.683Z,40.80
2022-09-02T16:20:43.602Z,40.90
2022-09-02T16:23:49.536Z,40.90
2022-09-02T16:26:54.883Z,40.90
2022-09-02T16:29:59.866Z,40.90
2022-09-02T16:33:07.451Z,40.80
2022-09-02T16:36:12.962Z,40.80
2022-09-02T16:39:18.276Z,40.80
2022-09-02T16:42:24.867Z,40.80
2022-09-02T16:45:30.057Z,40.80
2022-09-02T16:48:37.554Z,40.90
2022-09-02T16:51:43.296Z,40.90
2022-09-02T16:54:48.969Z,40.90
2022-09-02T16:57:53.915Z,40.90
2022-09-02T17:00:59.175Z,40.90
2022-09-02T17:04:08.716Z,41.10
2022-09-02T17:07:13.860Z,41.00
2022-09-02T17:10:20.283Z,41.10
2022-09-02T17:13:25.221Z,41.10
2022-09-02T17:16:32.341Z,41.30
2022-09-02T17:19:39.938Z,41.20
2022-09-02T17:22:44.991Z,41.20
2022-09-02T17:25:49.927Z,41.30
2022-09-02T17:28:56.589Z,41.40
2022-09-02T17:32:01.524Z,41.40
2022-09-02T17:35:11.054Z,41.40
2022-09-02T17:38:15.963Z,41.50
2022-09-02T17:41:33.391Z,41.60
2022-09-02T17:44:40.892Z,41.70
2022-09-02T17:47:45.858Z,41.70
2022-09-02T17:50:53.380Z,41.70
2022-09-02T17:53:58.720Z,41.70
2022-09-02T17:57:23.764Z,41.70
2022-09-02T18:00:30.998Z,41.70
2022-09-02T18:03:54.959Z,41.80
2022-09-02T18:07:08.462Z,41.80
2022-09-02T18:10:15.022Z,41.90
2022-09-02T18:13:30.053Z,42.00
2022-09-02T18:16:37.211Z,42.10
2022-09-02T18:20:00.412Z,42.60
2022-09-02T18:23:27.540Z,42.00
2022-09-02T18:26:44.826Z,42.10
2022-09-02T18:30:06.389Z,42.20
2022-09-02T18:33:25.177Z,42.30
2022-09-02T18:36:39.540Z,42.50
2022-09-02T18:40:02.842Z,42.60
2022-09-02T18:43:19.608Z,42.50
2022-09-02T18:46:29.077Z,42.50
2022-09-02T18:49:36.945Z,42.50
2022-09-02T18:52:45.478Z,42.50
2022-09-02T18:55:55.726Z,42.50
2022-09-02T18:59:08.062Z,42.50
2022-09-02T19:02:23.453Z,42.60
2022-09-02T19:05:32.546Z,42.60
2022-09-02T19:08:38.349Z,42.70
2022-09-02T19:11:46.814Z,42.70
2022-09-02T19:14:51.808Z,42.70
2022-09-02T19:17:59.901Z,42.80
2022-09-02T19:21:05.714Z,42.90
2022-09-02T19:24:14.907Z,42.90
2022-09-02T19:27:25.747Z,43.00
2022-09-02T19:30:36.090Z,43.00
2022-09-02T19:33:43.839Z,43.20
2022-09-02T19:36:52.620Z,43.20
2022-09-02T19:40:01.812Z,43.20
2022-09-02T19:43:15.140Z,43.30
2022-09-02T19:46:59.728Z,43.40
2022-09-02T19:49:47.916Z,43.50
2022-09-02T19:52:52.937Z,43.50
2022-09-02T19:55:57.925Z,43.60
2022-09-02T19:59:05.626Z,43.70
2022-09-02T20:02:10.717Z,43.70
2022-09-02T20:05:17.065Z,43.80
2022-09-02T20:08:24.466Z,44.40
2022-09-02T20:11:29.586Z,43.90
2022-09-02T20:14:37.317Z,44.00
2022-09-02T20:17:42.352Z,44.00
2022-09-02T20:20:49.392Z,44.00
2022-09-02T20:23:54.858Z,44.10
2022-09-02T20:27:07.304Z,44.10
2022-09-02T20:30:16.862Z,44.20
2022-09-02T20:33:24.166Z,44.30
2022-09-02T20:36:36.354Z,44.40
2022-09-02T20:39:55.510Z,44.50
2022-09-02T20:43:15.213Z,44.60
2022-09-02T20:46:38.000Z,44.70
2022-09-02T20:49:56.940Z,44.70
2022-09-02T20:53:16.794Z,44.80
2022-09-02T20:56:27.338Z,44.90
2022-09-02T20:59:43.946Z,45.00
2022-09-02T21:02:57.242Z,45.00
2022-09-02T21:06:03.185Z,45.10
2022-09-02T21:09:16.684Z,45.10
2022-09-02T21:12:33.579Z,45.20
2022-09-02T21:15:46.381Z,45.30
2022-09-02T21:19:03.639Z,46.00
2022-09-02T21:22:16.702Z,45.50
2022-09-02T21:25:28.082Z,45.40
2022-09-02T21:28:40.719Z,45.50
2022-09-02T21:31:50.473Z,45.70
2022-09-02T21:35:02.742Z,45.80
2022-09-02T21:38:12.783Z,45.80
2022-09-02T21:41:37.378Z,45.80
2022-09-02T21:44:52.343Z,46.00
2022-09-02T21:48:10.362Z,46.10
2022-09-02T21:51:25.032Z,46.10
2022-09-02T21:54:43.792Z,46.20
2022-09-02T21:58:00.887Z,46.30
2022-09-02T22:01:12.331Z,46.30
2022-09-02T22:04:32.615Z,46.40
2022-09-02T22:07:49.116Z,46.50
2022-09-02T22:11:06.022Z,46.60
2022-09-02T22:14:16.972Z,46.60
2022-09-02T22:17:30.169Z,46.70
2022-09-02T22:20:39.208Z,46.90
2022-09-02T22:23:47.038Z,46.80
2022-09-02T22:26:55.806Z,46.90
2022-09-02T22:30:07.075Z,46.90
2022-09-02T22:33:17.725Z,47.10
2022-09-02T22:36:37.802Z,47.10
2022-09-02T22:39:50.272Z,47.20
2022-09-02T22:42:59.194Z,47.20
2022-09-02T22:46:22.579Z,47.20
2022-09-02T22:49:44.498Z,47.30
2022-09-02T22:52:50.613Z,47.40
2022-09-02T22:56:02.988Z,47.40
2022-09-02T22:59:24.646Z,47.50
2022-09-02T23:02:34.040Z,47.60
2022-09-02T23:05:54.390Z,47.60
2022-09-02T23:09:05.618Z,47.70
2022-09-02T23:12:28.713Z,47.70
2022-09-02T23:15:43.005Z,47.80
2022-09-02T23:18:53.888Z,47.80
2022-09-02T23:22:06.454Z,47.80
2022-09-02T23:25:31.223Z,47.70
2022-09-02T23:28:52.312Z,47.90
2022-09-02T23:32:20.950Z,48.00
2022-09-02T23:35:35.025Z,48.10
2022-09-02T23:38:56.907Z,48.00
2022-09-02T23:42:03.438Z,48.20
2022-09-02T23:45:22.948Z,48.10
2022-09-02T23:48:44.258Z,48.40
2022-09-02T23:51:59.573Z,48.30
2022-09-02T23:55:11.858Z,48.30
2022-09-02T23:58:30.321Z,48.40
